createdAt,value
2023-03-18T00:01:16.553Z,3.60
2023-03-18T00:03:45.932Z,3.50
2023-03-18T00:06:16.803Z,3.60
2023-03-18T00:08:47.387Z,3.50
2023-03-18T00:11:18.526Z,3.60
2023-03-18T00:13:48.008Z,3.60
2023-03-18T00:16:18.546Z,3.50
2023-03-18T00:18:47.364Z,3.50
2023-03-18T00:21:16.918Z,3.50
2023-03-18T00:23:46.285Z,3.50
2023-03-18T00:26:15.888Z,3.50
2023-03-18T00:28:45.020Z,3.50
2023-03-18T00:31:14.257Z,3.50
2023-03-18T00:33:45.978Z,3.50
2023-03-18T00:36:18.456Z,3.50
2023-03-18T00:38:51.192Z,3.40
2023-03-18T00:41:20.249Z,3.40
2023-03-18T00:43:52.832Z,3.30
2023-03-18T00:46:24.767Z,3.20
2023-03-18T00:48:56.616Z,3.20
2023-03-18T00:51:28.323Z,3.20
2023-03-18T00:53:58.817Z,3.20
2023-03-18T00:56:29.624Z,3.20
2023-03-18T00:59:00.076Z,3.10
2023-03-18T01:01:29.780Z,3.10
2023-03-18T01:04:02.652Z,3.10
2023-03-18T01:06:34.115Z,3.10
2023-03-18T01:09:04.999Z,3.00
2023-03-18T01:11:34.506Z,3.00
2023-03-18T01:14:03.784Z,3.00
2023-03-18T01:16:32.755Z,3.00
2023-03-18T01:19:04.452Z,2.90
2023-03-18T01:21:34.542Z,2.90
2023-03-18T01:24:04.424Z,3.00
2023-03-18T01:26:36.909Z,3.00
2023-03-18T01:29:06.284Z,2.90
2023-03-18T01:31:35.867Z,2.90
2023-03-18T01:34:10.976Z,2.80
2023-03-18T01:36:52.691Z,2.80
2023-03-18T01:39:25.463Z,2.70
2023-03-18T01:41:54.330Z,2.70
2023-03-18T01:44:31.597Z,2.70
2023-03-18T01:47:02.107Z,2.70
2023-03-18T01:49:37.360Z,2.60
2023-03-18T01:52:09.047Z,2.60
2023-03-18T01:54:41.545Z,2.50
2023-03-18T01:57:10.676Z,2.40
2023-03-18T01:59:43.067Z,2.40
2023-03-18T02:02:14.284Z,2.40
2023-03-18T02:04:48.272Z,2.30
2023-03-18T02:07:19.842Z,2.30
2023-03-18T02:09:50.687Z,2.30
2023-03-18T02:12:24.302Z,2.20
2023-03-18T02:14:56.564Z,2.20
2023-03-18T02:17:29.221Z,2.10
2023-03-18T02:20:12.622Z,2.10
2023-03-18T02:22:44.543Z,2.10
2023-03-18T02:25:25.880Z,2.10
2023-03-18T02:28:00.296Z,2.10
2023-03-18T02:30:36.374Z,2.00
2023-03-18T02:33:07.985Z,2.00
2023-03-18T02:35:38.220Z,2.00
2023-03-18T02:38:07.195Z,2.00
2023-03-18T02:40:39.665Z,2.10
2023-03-18T02:43:23.950Z,2.10
2023-03-18T02:46:25.695Z,2.10
2023-03-18T02:48:56.210Z,2.10
2023-03-18T02:51:26.220Z,2.10
2023-03-18T02:53:58.665Z,2.20
2023-03-18T02:56:27.554Z,2.20
2023-03-18T02:58:58.463Z,2.20
2023-03-18T03:01:28.007Z,2.20
2023-03-18T03:03:57.559Z,2.20
2023-03-18T03:06:26.645Z,2.20
2023-03-18T03:08:55.925Z,2.20
2023-03-18T03:11:26.460Z,2.20
2023-03-18T03:14:00.089Z,2.10
2023-03-18T03:16:29.608Z,2.10
2023-03-18T03:18:59.299Z,2.10
2023-03-18T03:21:28.527Z,2.20
2023-03-18T03:23:58.514Z,2.20
2023-03-18T03:26:27.286Z,2.20
2023-03-18T03:28:56.863Z,2.30
2023-03-18T03:31:27.417Z,2.30
2023-03-18T03:33:56.493Z,2.30
2023-03-18T03:36:25.378Z,2.40
2023-03-18T03:38:55.568Z,2.50
2023-03-18T03:41:24.311Z,2.50
2023-03-18T03:43:53.499Z,2.50
2023-03-18T03:46:22.553Z,2.50
2023-03-18T03:48:52.824Z,2.50
2023-03-18T03:51:22.299Z,2.50
2023-03-18T03:53:51.304Z,2.50
2023-03-18T03:56:20.048Z,2.50
2023-03-18T03:58:48.977Z,2.50
2023-03-18T04:01:18.526Z,2.50
2023-03-18T04:03:48.824Z,2.50
2023-03-18T04:06:21.074Z,2.50
2023-03-18T04:08:58.365Z,2.50
2023-03-18T04:11:27.459Z,2.50
2023-03-18T04:13:56.631Z,2.50
2023-03-18T04:16:25.564Z,2.50
2023-03-18T04:18:54.372Z,2.50
2023-03-18T04:21:27.202Z,2.50
2023-03-18T04:23:57.715Z,2.50
2023-03-18T04:26:28.490Z,2.60
2023-03-18T04:29:00.606Z,2.50
2023-03-18T04:31:29.679Z,2.60
2023-03-18T04:33:59.984Z,2.50
2023-03-18T04:36:30.972Z,2.50
2023-03-18T04:39:00.059Z,2.50
2023-03-18T04:41:29.099Z,2.50
2023-03-18T04:44:00.786Z,2.50
2023-03-18T04:46:39.291Z,2.50
2023-03-18T04:49:09.581Z,2.50
2023-03-18T04:51:40.378Z,2.50
2023-03-18T04:54:17.418Z,2.50
2023-03-18T04:56:46.802Z,2.60
2023-03-18T04:59:16.272Z,2.60
2023-03-18T05:01:45.452Z,2.60
2023-03-18T05:04:17.173Z,2.60
2023-03-18T05:06:54.867Z,2.70
2023-03-18T05:09:30.504Z,2.70
2023-03-18T05:12:00.546Z,2.70
2023-03-18T05:14:34.171Z,2.70
2023-03-18T05:17:04.737Z,2.80
2023-03-18T05:19:37.013Z,2.80
2023-03-18T05:22:17.505Z,2.90
2023-03-18T05:24:48.709Z,2.90
2023-03-18T05:27:19.954Z,2.90
2023-03-18T05:29:57.920Z,3.00
2023-03-18T05:32:36.768Z,3.10
2023-03-18T05:35:09.198Z,3.10
2023-03-18T05:37:47.340Z,3.10
2023-03-18T05:40:16.630Z,3.20
2023-03-18T05:42:57.457Z,3.30
2023-03-18T05:45:38.560Z,3.40
2023-03-18T05:48:10.622Z,3.40
2023-03-18T05:50:47.949Z,3.50
2023-03-18T05:53:23.854Z,3.50
2023-03-18T05:55:59.924Z,3.50
2023-03-18T05:58:31.330Z,3.60
2023-03-18T06:01:15.177Z,3.60
2023-03-18T06:03:44.020Z,3.60
2023-03-18T06:06:13.063Z,3.60
2023-03-18T06:08:43.584Z,3.70
2023-03-18T06:11:12.438Z,3.70
2023-03-18T06:13:41.498Z,3.80
2023-03-18T06:16:10.912Z,3.80
2023-03-18T06:18:40.684Z,3.80
2023-03-18T06:21:12.231Z,3.90
2023-03-18T06:23:41.099Z,4.00
2023-03-18T06:26:11.623Z,4.00
2023-03-18T06:28:47.934Z,4.00
2023-03-18T06:31:18.938Z,4.00
2023-03-18T06:33:47.830Z,4.00
2023-03-18T06:36:19.365Z,4.10
2023-03-18T06:38:51.071Z,4.20
2023-03-18T06:41:22.512Z,4.20
2023-03-18T06:44:07.015Z,4.30
2023-03-18T06:46:37.307Z,4.50
2023-03-18T06:49:07.254Z,4.50
2023-03-18T06:51:40.343Z,4.60
2023-03-18T06:54:10.096Z,4.90
2023-03-18T06:56:41.769Z,4.90
2023-03-18T06:59:21.577Z,5.10
2023-03-18T07:01:50.834Z,5.30
2023-03-18T07:04:24.033Z,5.40
2023-03-18T07:06:56.305Z,5.50
2023-03-18T07:09:26.720Z,5.70
2023-03-18T07:12:00.423Z,5.70
2023-03-18T07:14:29.571Z,5.80
2023-03-18T07:16:58.746Z,5.90
2023-03-18T07:19:27.565Z,6.00
2023-03-18T07:21:57.095Z,6.00
2023-03-18T07:24:27.145Z,6.10
2023-03-18T07:26:56.008Z,6.20
2023-03-18T07:29:26.162Z,6.20
2023-03-18T07:31:55.132Z,6.20
2023-03-18T07:34:24.192Z,6.20
2023-03-18T07:36:53.578Z,6.30
2023-03-18T07:39:22.664Z,6.30
2023-03-18T07:41:51.668Z,6.40
2023-03-18T07:44:25.344Z,6.40
2023-03-18T07:46:54.309Z,6.50
2023-03-18T07:49:23.879Z,6.50
2023-03-18T07:51:52.679Z,6.60
2023-03-18T07:54:21.444Z,6.70
2023-03-18T07:56:50.172Z,6.80
2023-03-18T07:59:19.403Z,6.90
2023-03-18T08:01:50.250Z,7.20
2023-03-18T08:04:19.382Z,7.50
2023-03-18T08:06:48.450Z,7.80
2023-03-18T08:09:17.178Z,8.10
2023-03-18T08:11:46.033Z,8.50
2023-03-18T08:14:15.035Z,8.70
2023-03-18T08:16:43.784Z,8.70
2023-03-18T08:19:13.952Z,8.90
2023-03-18T08:21:42.960Z,9.00
2023-03-18T08:24:12.088Z,9.10
2023-03-18T08:26:41.300Z,9.20
2023-03-18T08:29:10.120Z,9.20
2023-03-18T08:31:41.846Z,9.30
2023-03-18T08:34:10.703Z,9.20
2023-03-18T08:36:42.787Z,9.20
2023-03-18T08:39:11.715Z,9.30
2023-03-18T08:41:40.443Z,9.60
2023-03-18T08:44:10.928Z,9.50
2023-03-18T08:46:39.956Z,9.50
2023-03-18T08:49:10.308Z,9.50
2023-03-18T08:51:41.083Z,9.60
2023-03-18T08:54:09.911Z,9.70
2023-03-18T08:56:38.648Z,9.70
2023-03-18T08:59:07.397Z,9.70
2023-03-18T09:01:36.435Z,9.70
2023-03-18T09:04:05.248Z,9.90
2023-03-18T09:06:34.199Z,10.10
2023-03-18T09:09:04.375Z,10.20
2023-03-18T09:11:33.827Z,10.50
2023-03-18T09:14:02.652Z,10.60
2023-03-18T09:16:31.392Z,10.70
2023-03-18T09:19:00.352Z,10.70
2023-03-18T09:21:29.075Z,10.80
2023-03-18T09:23:58.109Z,10.80
2023-03-18T09:26:28.226Z,10.90
2023-03-18T09:28:57.360Z,11.00
2023-03-18T09:31:27.145Z,10.90
2023-03-18T09:33:56.259Z,10.80
2023-03-18T09:36:25.039Z,10.70
2023-03-18T09:38:54.104Z,10.80
2023-03-18T09:41:33.463Z,10.80
2023-03-18T09:44:14.622Z,11.00
2023-03-18T09:47:01.843Z,11.00
2023-03-18T09:50:03.670Z,11.10
2023-03-18T09:52:37.165Z,11.20
2023-03-18T09:55:13.876Z,11.30
2023-03-18T09:57:47.530Z,11.60
2023-03-18T10:00:20.644Z,11.50
2023-03-18T10:02:53.252Z,11.60
2023-03-18T10:05:27.302Z,11.70
2023-03-18T10:08:00.266Z,11.90
2023-03-18T10:10:35.951Z,11.90
2023-03-18T10:13:13.937Z,12.00
2023-03-18T10:15:45.602Z,12.00
2023-03-18T10:18:19.849Z,12.00
2023-03-18T10:21:00.765Z,12.00
2023-03-18T10:23:38.706Z,12.10
2023-03-18T10:26:17.337Z,12.20
2023-03-18T10:29:03.511Z,12.40
2023-03-18T10:31:46.179Z,12.60
2023-03-18T10:34:17.949Z,12.70
2023-03-18T10:36:52.169Z,12.90
2023-03-18T10:39:24.834Z,13.00
2023-03-18T10:41:55.862Z,13.00
2023-03-18T10:44:30.343Z,12.90
2023-03-18T10:47:02.751Z,13.00
2023-03-18T10:49:35.118Z,13.20
2023-03-18T10:52:11.489Z,13.20
2023-03-18T10:54:42.832Z,13.30
2023-03-18T10:57:15.799Z,13.30
2023-03-18T10:59:46.220Z,13.20
2023-03-18T11:02:20.202Z,13.20
2023-03-18T11:04:51.195Z,13.20
2023-03-18T11:07:23.780Z,13.20
2023-03-18T11:09:53.038Z,13.40
2023-03-18T11:12:27.136Z,13.60
2023-03-18T11:14:58.045Z,13.80
2023-03-18T11:17:31.168Z,13.80
2023-03-18T11:20:08.230Z,13.90
2023-03-18T11:22:38.681Z,13.90
2023-03-18T11:25:16.652Z,13.70
2023-03-18T11:27:48.344Z,13.80
2023-03-18T11:30:38.319Z,13.90
2023-03-18T11:33:14.905Z,13.90
2023-03-18T11:35:48.274Z,13.80
2023-03-18T11:38:19.849Z,13.70
2023-03-18T11:40:48.955Z,13.70
2023-03-18T11:43:20.660Z,13.90
2023-03-18T11:45:55.584Z,14.10
2023-03-18T11:48:35.706Z,14.20
2023-03-18T11:51:39.646Z,14.20
2023-03-18T11:54:41.344Z,14.30
2023-03-18T11:57:17.485Z,14.50
2023-03-18T11:59:56.528Z,14.50
2023-03-18T12:03:10.650Z,14.50
2023-03-18T12:06:01.766Z,14.40
2023-03-18T12:08:40.279Z,14.40
2023-03-18T12:11:14.016Z,14.40
2023-03-18T12:13:53.759Z,14.70
2023-03-18T12:16:36.472Z,14.80
2023-03-18T12:19:32.898Z,14.80
2023-03-18T12:22:22.591Z,14.60
2023-03-18T12:25:04.346Z,14.60
2023-03-18T12:27:44.472Z,14.60
2023-03-18T12:30:35.434Z,14.60
2023-03-18T12:33:13.985Z,14.80
2023-03-18T12:35:55.026Z,14.80
2023-03-18T12:38:47.066Z,14.90
2023-03-18T12:41:19.463Z,15.00
2023-03-18T12:43:58.526Z,15.20
2023-03-18T12:46:33.070Z,15.10
2023-03-18T12:49:09.469Z,15.20
2023-03-18T12:51:45.016Z,15.10
2023-03-18T12:54:20.585Z,15.20
2023-03-18T12:56:55.078Z,15.20
2023-03-18T12:59:29.838Z,15.20
2023-03-18T13:02:16.069Z,15.30
2023-03-18T13:04:54.968Z,15.00
2023-03-18T13:07:36.272Z,15.10
2023-03-18T13:10:15.023Z,15.20
2023-03-18T13:12:45.566Z,15.50
2023-03-18T13:15:24.611Z,15.50
2023-03-18T13:17:58.467Z,15.70
2023-03-18T13:20:31.296Z,15.80
2023-03-18T13:23:23.458Z,15.80
2023-03-18T13:26:04.851Z,15.70
2023-03-18T13:28:56.814Z,15.70
2023-03-18T13:31:38.506Z,15.60
2023-03-18T13:34:26.703Z,15.40
2023-03-18T13:37:24.947Z,15.40
2023-03-18T13:40:27.407Z,15.30
2023-03-18T13:43:01.413Z,15.10
2023-03-18T13:45:33.720Z,15.10
2023-03-18T13:48:07.528Z,15.10
2023-03-18T13:50:39.779Z,15.20
2023-03-18T13:53:23.563Z,15.20
2023-03-18T13:56:01.462Z,15.30
2023-03-18T13:58:35.728Z,15.50
2023-03-18T14:01:33.434Z,15.50
2023-03-18T14:04:19.162Z,15.40
2023-03-18T14:06:54.330Z,15.50
2023-03-18T14:09:47.328Z,15.80
2023-03-18T14:12:38.744Z,15.50
2023-03-18T14:15:46.310Z,15.40
2023-03-18T14:18:27.684Z,15.50
2023-03-18T14:21:02.724Z,15.50
2023-03-18T14:23:46.005Z,15.40
2023-03-18T14:26:23.143Z,15.50
2023-03-18T14:28:56.941Z,15.40
2023-03-18T14:31:34.382Z,15.30
2023-03-18T14:34:33.717Z,15.50
2023-03-18T14:37:27.797Z,15.50
2023-03-18T14:40:02.074Z,15.50
2023-03-18T14:42:50.135Z,15.40
2023-03-18T14:45:27.340Z,15.30
2023-03-18T14:47:57.689Z,15.30
2023-03-18T14:50:36.954Z,15.20
2023-03-18T14:53:13.705Z,15.10
2023-03-18T14:55:43.027Z,15.00
2023-03-18T14:58:17.368Z,15.00
2023-03-18T15:00:48.207Z,15.00
2023-03-18T15:03:23.290Z,14.90
2023-03-18T15:05:58.044Z,14.80
2023-03-18T15:08:44.631Z,14.80
2023-03-18T15:11:17.439Z,14.80
2023-03-18T15:13:46.491Z,14.70
2023-03-18T15:16:19.864Z,14.60
2023-03-18T15:18:54.802Z,14.60
2023-03-18T15:21:30.205Z,14.60
2023-03-18T15:24:03.545Z,14.50
2023-03-18T15:26:36.537Z,14.40
2023-03-18T15:29:28.005Z,14.30
2023-03-18T15:32:10.620Z,14.30
2023-03-18T15:34:43.388Z,14.20
2023-03-18T15:37:41.158Z,14.10
2023-03-18T15:40:38.066Z,13.90
2023-03-18T15:43:19.000Z,13.90
2023-03-18T15:45:53.929Z,13.80
2023-03-18T15:48:28.268Z,13.70
2023-03-18T15:51:00.053Z,13.70
2023-03-18T15:53:35.218Z,13.60
2023-03-18T15:56:16.423Z,13.50
2023-03-18T15:58:46.119Z,13.50
2023-03-18T16:01:18.663Z,13.40
2023-03-18T16:03:47.725Z,13.40
2023-03-18T16:06:16.839Z,13.40
2023-03-18T16:08:47.746Z,13.40
2023-03-18T16:11:17.603Z,13.40
2023-03-18T16:13:46.962Z,13.20
2023-03-18T16:16:30.601Z,13.10
2023-03-18T16:18:59.806Z,13.00
2023-03-18T16:21:28.573Z,13.00
2023-03-18T16:23:58.871Z,12.80
2023-03-18T16:26:28.084Z,12.60
2023-03-18T16:28:56.790Z,12.50
2023-03-18T16:31:25.917Z,12.50
2023-03-18T16:33:56.208Z,12.40
2023-03-18T16:36:35.078Z,12.40
2023-03-18T16:39:16.175Z,12.30
2023-03-18T16:41:45.264Z,12.10
2023-03-18T16:44:16.021Z,12.00
2023-03-18T16:46:47.451Z,11.80
2023-03-18T16:49:19.408Z,11.80
2023-03-18T16:51:49.571Z,11.90
2023-03-18T16:54:21.606Z,11.90
2023-03-18T16:56:52.355Z,11.90
2023-03-18T16:59:22.218Z,11.70
2023-03-18T17:01:51.639Z,11.50
2023-03-18T17:04:25.857Z,11.50
2023-03-18T17:06:54.687Z,11.40
2023-03-18T17:09:26.335Z,11.20
2023-03-18T17:11:59.161Z,11.10
2023-03-18T17:14:32.560Z,10.90
2023-03-18T17:17:03.579Z,10.80
2023-03-18T17:19:32.416Z,10.90
2023-03-18T17:22:01.132Z,10.90
2023-03-18T17:24:31.325Z,10.80
2023-03-18T17:27:00.137Z,10.80
2023-03-18T17:29:31.393Z,10.70
2023-03-18T17:32:00.259Z,10.70
2023-03-18T17:34:29.201Z,10.60
2023-03-18T17:36:58.649Z,10.50
2023-03-18T17:39:27.527Z,10.60
2023-03-18T17:41:57.865Z,10.60
2023-03-18T17:44:30.047Z,10.50
2023-03-18T17:46:59.165Z,10.50
2023-03-18T17:49:28.991Z,10.40
2023-03-18T17:51:58.010Z,10.40
2023-03-18T17:54:28.127Z,10.40
2023-03-18T17:56:58.276Z,10.40
2023-03-18T17:59:28.949Z,10.30
2023-03-18T18:01:57.856Z,10.30
2023-03-18T18:04:27.441Z,10.30
2023-03-18T18:06:56.190Z,10.20
2023-03-18T18:09:24.990Z,10.20
2023-03-18T18:11:53.757Z,10.20
2023-03-18T18:14:26.068Z,10.10
2023-03-18T18:16:56.211Z,10.10
2023-03-18T18:19:25.660Z,10.10
2023-03-18T18:21:54.914Z,10.00
2023-03-18T18:24:25.519Z,10.10
2023-03-18T18:26:54.624Z,10.10
2023-03-18T18:29:26.440Z,10.00
2023-03-18T18:31:55.678Z,9.90
2023-03-18T18:34:24.504Z,9.90
2023-03-18T18:36:53.691Z,9.80
2023-03-18T18:39:22.445Z,9.70
2023-03-18T18:41:51.399Z,9.60
2023-03-18T18:44:20.443Z,9.60
2023-03-18T18:46:50.813Z,9.50
2023-03-18T18:49:22.606Z,9.60
2023-03-18T18:51:53.402Z,9.60
2023-03-18T18:54:22.755Z,9.50
2023-03-18T18:56:52.269Z,9.40
2023-03-18T18:59:24.815Z,9.40
2023-03-18T19:01:56.544Z,9.30
2023-03-18T19:04:25.640Z,9.30
2023-03-18T19:06:55.773Z,9.30
2023-03-18T19:09:27.056Z,9.30
2023-03-18T19:11:57.125Z,9.10
2023-03-18T19:14:27.990Z,9.10
2023-03-18T19:17:00.176Z,9.10
2023-03-18T19:19:32.107Z,9.00
2023-03-18T19:22:01.240Z,8.90
2023-03-18T19:24:31.548Z,8.90
2023-03-18T19:27:02.950Z,8.90
2023-03-18T19:29:32.568Z,8.80
2023-03-18T19:32:03.103Z,8.70
2023-03-18T19:34:33.785Z,8.70
2023-03-18T19:37:05.882Z,8.60
2023-03-18T19:39:34.768Z,8.60
2023-03-18T19:42:03.587Z,8.70
2023-03-18T19:44:32.536Z,8.60
2023-03-18T19:47:04.101Z,8.60
2023-03-18T19:49:36.617Z,8.60
2023-03-18T19:52:12.760Z,8.40
2023-03-18T19:54:41.708Z,8.40
2023-03-18T19:57:16.503Z,8.30
2023-03-18T19:59:47.933Z,8.30
2023-03-18T20:02:23.768Z,8.20
2023-03-18T20:04:54.662Z,8.00
2023-03-18T20:07:25.296Z,7.90
2023-03-18T20:09:55.093Z,7.80
2023-03-18T20:12:26.725Z,7.80
2023-03-18T20:14:55.685Z,7.70
2023-03-18T20:17:40.135Z,7.60
2023-03-18T20:20:14.472Z,7.70
2023-03-18T20:22:47.913Z,7.80
2023-03-18T20:25:23.859Z,7.80
2023-03-18T20:27:56.224Z,7.80
2023-03-18T20:30:29.244Z,7.80
2023-03-18T20:33:00.307Z,7.80
2023-03-18T20:35:30.979Z,7.70
2023-03-18T20:38:01.936Z,7.60
2023-03-18T20:40:31.571Z,7.60
2023-03-18T20:43:00.592Z,7.70
2023-03-18T20:45:29.409Z,7.70
2023-03-18T20:47:59.753Z,7.70
2023-03-18T20:50:31.012Z,7.60
2023-03-18T20:52:59.945Z,7.50
2023-03-18T20:55:31.190Z,7.60
2023-03-18T20:58:01.069Z,7.60
2023-03-18T21:00:32.729Z,7.50
2023-03-18T21:03:04.254Z,7.50
2023-03-18T21:05:33.370Z,7.50
2023-03-18T21:08:02.275Z,7.40
2023-03-18T21:10:31.195Z,7.40
2023-03-18T21:12:59.986Z,7.40
2023-03-18T21:15:29.564Z,7.40
2023-03-18T21:17:58.438Z,7.40
2023-03-18T21:20:31.579Z,7.40
2023-03-18T21:23:00.691Z,7.40
2023-03-18T21:25:29.966Z,7.30
2023-03-18T21:27:58.993Z,7.20
2023-03-18T21:30:27.801Z,7.30
2023-03-18T21:32:56.655Z,7.30
2023-03-18T21:35:27.027Z,7.20
2023-03-18T21:37:57.224Z,7.20
2023-03-18T21:40:27.319Z,7.00
2023-03-18T21:42:56.283Z,6.90
2023-03-18T21:45:25.244Z,6.80
2023-03-18T21:47:54.213Z,6.90
2023-03-18T21:50:25.301Z,7.00
2023-03-18T21:52:56.170Z,7.00
2023-03-18T21:55:25.006Z,7.00
2023-03-18T21:57:53.810Z,7.00
2023-03-18T22:00:22.977Z,7.00
2023-03-18T22:02:51.955Z,7.00
2023-03-18T22:05:22.903Z,6.90
2023-03-18T22:07:52.516Z,6.90
2023-03-18T22:10:24.487Z,6.70
2023-03-18T22:12:53.676Z,6.80
2023-03-18T22:15:39.995Z,6.60
2023-03-18T22:18:09.017Z,6.50
2023-03-18T22:20:39.716Z,6.50
2023-03-18T22:23:20.450Z,6.50
2023-03-18T22:25:54.106Z,6.50
2023-03-18T22:28:23.837Z,6.40
2023-03-18T22:30:55.327Z,6.30
2023-03-18T22:33:27.412Z,6.20
2023-03-18T22:35:56.544Z,6.20
2023-03-18T22:38:26.647Z,6.10
2023-03-18T22:40:58.206Z,6.10
2023-03-18T22:43:30.982Z,6.00
2023-03-18T22:46:00.792Z,5.80
2023-03-18T22:48:29.986Z,5.90
2023-03-18T22:51:00.775Z,5.90
2023-03-18T22:53:32.523Z,5.80
2023-03-18T22:56:08.232Z,5.60
2023-03-18T22:58:37.386Z,5.50
2023-03-18T23:01:07.114Z,5.40
2023-03-18T23:03:40.394Z,5.30
2023-03-18T23:06:13.589Z,5.50
2023-03-18T23:08:42.732Z,5.40
2023-03-18T23:11:14.116Z,5.30
2023-03-18T23:13:45.019Z,5.20
2023-03-18T23:16:16.933Z,5.20
2023-03-18T23:18:46.155Z,5.10
2023-03-18T23:21:18.106Z,5.10
2023-03-18T23:23:47.206Z,5.10
2023-03-18T23:26:18.419Z,5.20
2023-03-18T23:28:47.335Z,5.40
2023-03-18T23:31:16.997Z,5.40
2023-03-18T23:33:47.234Z,5.40
2023-03-18T23:36:16.224Z,5.40
2023-03-18T23:38:45.043Z,5.30
2023-03-18T23:41:13.823Z,5.30
2023-03-18T23:43:44.378Z,5.30
2023-03-18T23:46:13.386Z,5.40
2023-03-18T23:48:42.314Z,5.50
2023-03-18T23:51:11.178Z,5.50
2023-03-18T23:53:40.087Z,5.40
2023-03-18T23:56:09.519Z,5.50
2023-03-18T23:58:38.369Z,5.60
